This is the latest recevied weather packets stored in our database for station/object HOWARD. If no packets are shown the sender has not sent any weather packets the latest 10 day(s).
| Time | Temp. | Humidity | Pressure | Rain* | Wind** | Luminosity | Snow |
|---|---|---|---|---|---|---|---|
| 1777852306 | 11.11° C | 47% | 1012 hPa | 0 mm | - | 1761 W/m² | - |
| 1777851706 | 11.11° C | 46% | 1012.1 hPa | 0 mm | - | - | - |
| 1777851105 | 10.56° C | - | 1012.1 hPa | 0 mm | - | - | - |
| 1777850506 | 11.11° C | 43% | 1012.2 hPa | 0 mm | - | - | - |
| 1777849905 | 11.67° C | 43% | 1012.4 hPa | 0 mm | - | - | - |
| 1777849305 | 11.67° C | 41% | 1012.4 hPa | 0 mm | - | - | - |
| 1777848705 | 11.67° C | 41% | 1012.5 hPa | 0 mm | - | - | - |
| 1777848105 | 11.67° C | 43% | 1012.4 hPa | 0 mm | - | - | - |
| 1777847558 | 12.22° C | 41% | 1012.7 hPa | 0 mm | - | - | - |
| 1777847505 | 12.22° C | 41% | 1012.7 hPa | 0 mm | - | - | - |
| 1777846905 | 11.67° C | 43% | 1012.7 hPa | 0 mm | - | - | - |
| 1777846305 | 11.67° C | 41% | 1013 hPa | 0 mm | - | - | - |
| 1777845705 | 11.67° C | 43% | 1012.9 hPa | 0 mm | - | - | - |
| 1777845106 | 11.67° C | 41% | 1013.1 hPa | 0 mm | - | - | - |
| 1777844505 | 11.11° C | 42% | 1013.2 hPa | 0 mm | - | - | - |
| 1777843905 | 11.11° C | 41% | 1013.4 hPa | 0 mm | - | - | - |
| 1777843305 | 11.67° C | 40% | 1013.4 hPa | 0 mm | - | - | - |
| 1777842705 | 11.11° C | 42% | 1013.4 hPa | 0 mm | - | - | - |
| 1777842105 | 11.11° C | 41% | 1013.6 hPa | 0 mm | - | - | - |
| 1777841505 | 10.56° C | 42% | 1013.6 hPa | 0 mm | - | - | - |
| 1777840939 | 11.11° C | 42% | 1014.2 hPa | 0 mm | - | - | - |
| 1777840905 | 11.11° C | 42% | 1014.2 hPa | 0 mm | - | - | - |
| 1777840305 | 11.11° C | 41% | 1014.2 hPa | 0 mm | - | - | - |
| 1777839705 | 11.11° C | 42% | 1014.4 hPa | 0 mm | - | - | - |
| 1777839147 | 10.56° C | 41% | 1014.3 hPa | 0 mm | - | - | - |
* Rain latest hour (hover to see other rain measurements)
** Current wind speed in m/s (hover to see current wind gust speed)